createdAt,value
2023-01-01T00:00:31.741Z,16.27
2023-01-01T00:03:35.854Z,17.03
2023-01-01T00:06:38.658Z,12.13
2023-01-01T00:09:58.754Z,18.03
2023-01-01T00:13:01.423Z,14.43
2023-01-01T00:16:07.340Z,12.20
2023-01-01T00:19:11.304Z,16.07
2023-01-01T00:22:52.502Z,12.37
2023-01-01T00:25:36.451Z,11.43
2023-01-01T00:28:39.213Z,17.50
2023-01-01T00:31:41.922Z,17.00
2023-01-01T00:34:45.874Z,17.73
2023-01-01T00:37:48.457Z,15.03
2023-01-01T00:40:51.055Z,15.13
2023-01-01T00:43:53.633Z,18.83
2023-01-01T00:46:56.222Z,15.80
2023-01-01T00:50:00.227Z,12.70
2023-01-01T00:53:02.807Z,14.47
2023-01-01T00:56:06.069Z,17.17
2023-01-01T00:59:08.900Z,12.67
2023-01-01T01:02:11.610Z,13.63
2023-01-01T01:05:15.691Z,15.57
2023-01-01T01:08:18.250Z,11.57
2023-01-01T01:11:23.094Z,16.00
2023-01-01T01:14:25.710Z,17.13
2023-01-01T01:17:29.549Z,18.77
2023-01-01T01:20:34.043Z,16.77
2023-01-01T01:23:37.403Z,13.53
2023-01-01T01:26:40.100Z,12.13
2023-01-01T01:29:42.691Z,15.50
2023-01-01T01:32:45.485Z,23.70
2023-01-01T01:35:52.948Z,13.30
2023-01-01T01:38:56.181Z,13.03
2023-01-01T01:41:58.818Z,21.77
2023-01-01T01:45:02.942Z,13.67
2023-01-01T01:48:06.503Z,16.33
2023-01-01T01:51:13.418Z,14.90
2023-01-01T01:54:20.207Z,12.20
2023-01-01T01:57:24.055Z,12.23
2023-01-01T02:00:26.704Z,19.20
2023-01-01T02:03:35.765Z,15.47
2023-01-01T02:06:40.557Z,21.67
2023-01-01T02:09:43.433Z,15.13
2023-01-01T02:12:46.258Z,18.70
2023-01-01T02:15:54.252Z,17.00
2023-01-01T02:19:02.763Z,13.97
2023-01-01T02:22:16.406Z,14.87
2023-01-01T02:25:29.742Z,14.30
2023-01-01T02:28:45.567Z,20.43
2023-01-01T02:31:52.647Z,14.90
2023-01-01T02:34:59.061Z,12.30
2023-01-01T02:38:06.697Z,12.97
2023-01-01T02:41:13.697Z,12.43
2023-01-01T02:44:19.692Z,13.67
2023-01-01T02:47:22.643Z,13.40
2023-01-01T02:50:28.894Z,18.90
2023-01-01T02:53:34.662Z,11.80
2023-01-01T02:56:45.571Z,15.30
2023-01-01T03:00:19.669Z,13.73
2023-01-01T03:03:31.904Z,11.43
2023-01-01T03:06:40.955Z,17.33
2023-01-01T03:09:48.965Z,11.90
2023-01-01T03:12:56.860Z,14.00
2023-01-01T03:16:07.947Z,13.87
2023-01-01T03:19:16.411Z,17.30
2023-01-01T03:22:21.691Z,12.93
2023-01-01T03:25:29.006Z,15.80
2023-01-01T03:28:36.574Z,12.57
2023-01-01T03:31:43.198Z,16.53
2023-01-01T03:34:51.943Z,13.10
2023-01-01T03:37:57.431Z,14.03
2023-01-01T03:41:05.817Z,18.67
2023-01-01T03:44:13.271Z,10.80
2023-01-01T03:47:17.989Z,11.73
2023-01-01T03:50:26.799Z,13.07
2023-01-01T03:53:39.524Z,10.83
2023-01-01T03:56:47.695Z,12.37
2023-01-01T03:59:57.427Z,10.03
2023-01-01T04:03:06.676Z,15.20
2023-01-01T04:06:12.406Z,13.93
2023-01-01T04:09:18.851Z,15.90
2023-01-01T04:12:22.532Z,14.10
2023-01-01T04:15:28.369Z,13.03
2023-01-01T04:18:32.321Z,11.17
2023-01-01T04:21:35.009Z,14.87
2023-01-01T04:24:37.617Z,13.20
2023-01-01T04:27:41.282Z,12.70
2023-01-01T04:33:46.736Z,14.23
2023-01-01T04:36:49.349Z,9.10
2023-01-01T04:39:51.914Z,13.47
2023-01-01T04:42:55.352Z,11.43
2023-01-01T04:45:58.991Z,17.53
2023-01-01T04:49:02.999Z,9.63
2023-01-01T04:52:05.885Z,13.67
2023-01-01T04:55:09.137Z,13.27
2023-01-01T04:58:11.723Z,16.20
2023-01-01T05:01:20.246Z,14.70
2023-01-01T05:04:24.345Z,9.60
2023-01-01T05:07:26.934Z,15.10
2023-01-01T05:10:30.170Z,12.70
2023-01-01T05:13:34.906Z,8.67
2023-01-01T05:16:39.618Z,16.17
2023-01-01T05:19:43.560Z,15.20
2023-01-01T05:22:46.917Z,10.87
2023-01-01T05:25:49.484Z,11.43
2023-01-01T05:28:52.315Z,17.63
2023-01-01T05:31:54.941Z,10.07
2023-01-01T05:34:58.905Z,10.30
2023-01-01T05:38:01.602Z,8.07
2023-01-01T05:41:07.826Z,8.50
2023-01-01T05:44:11.588Z,13.03
2023-01-01T05:47:15.296Z,11.13
2023-01-01T05:50:19.317Z,11.80
2023-01-01T05:53:21.918Z,14.83
2023-01-01T05:56:25.082Z,12.17
2023-01-01T05:59:27.646Z,11.53
2023-01-01T06:02:31.574Z,10.77
2023-01-01T06:05:36.312Z,9.57
2023-01-01T06:08:39.220Z,8.73
2023-01-01T06:11:41.825Z,16.77
2023-01-01T06:14:44.392Z,9.83
2023-01-01T06:17:47.066Z,11.27
2023-01-01T06:20:51.343Z,10.80
2023-01-01T06:23:54.056Z,11.60
2023-01-01T06:26:56.644Z,11.80
2023-01-01T06:29:59.242Z,9.53
2023-01-01T06:33:01.849Z,11.37
2023-01-01T06:36:08.006Z,9.10
2023-01-01T06:39:10.616Z,18.17
2023-01-01T06:42:13.213Z,13.73
2023-01-01T06:45:15.909Z,10.07
2023-01-01T06:48:18.499Z,11.27
2023-01-01T06:51:23.976Z,10.60
2023-01-01T06:54:26.751Z,7.57
2023-01-01T06:57:29.341Z,7.87
2023-01-01T07:00:31.982Z,7.10
2023-01-01T07:03:35.357Z,7.83
2023-01-01T07:06:39.686Z,13.03
2023-01-01T07:09:42.285Z,8.23
2023-01-01T07:12:44.864Z,11.37
2023-01-01T07:15:47.486Z,7.73
2023-01-01T07:18:50.586Z,11.63
2023-01-01T07:21:55.970Z,7.67
2023-01-01T07:24:58.523Z,7.90
2023-01-01T07:28:01.130Z,7.23
2023-01-01T07:31:03.765Z,8.33
2023-01-01T07:34:07.161Z,9.07
2023-01-01T07:37:11.118Z,6.70
2023-01-01T07:40:13.776Z,10.67
2023-01-01T07:43:16.376Z,11.67
2023-01-01T07:46:19.786Z,7.67
2023-01-01T07:49:22.449Z,9.27
2023-01-01T07:52:26.406Z,6.43
2023-01-01T07:55:29.023Z,8.13
2023-01-01T07:58:31.628Z,5.27
2023-01-01T08:01:36.760Z,8.93
2023-01-01T08:04:39.843Z,6.57
2023-01-01T08:07:47.341Z,7.90
2023-01-01T08:10:49.915Z,6.67
2023-01-01T08:13:52.511Z,7.00
2023-01-01T08:16:55.110Z,5.43
2023-01-01T08:19:57.691Z,10.50
2023-01-01T08:23:06.738Z,7.53
2023-01-01T08:26:15.929Z,3.73
2023-01-01T08:29:19.423Z,9.03
2023-01-01T08:32:22.104Z,12.07
2023-01-01T08:35:24.716Z,4.80
2023-01-01T08:38:28.698Z,7.30
2023-01-01T08:41:31.276Z,6.77
2023-01-01T08:44:33.847Z,5.23
2023-01-01T08:47:36.525Z,7.30
2023-01-01T08:50:39.095Z,7.00
2023-01-01T08:53:47.022Z,9.83
2023-01-01T08:56:53.067Z,8.23
2023-01-01T08:59:55.639Z,7.67
2023-01-01T09:02:58.231Z,8.07
2023-01-01T09:06:01.249Z,5.63
2023-01-01T09:09:05.407Z,6.50
2023-01-01T09:12:09.536Z,5.53
2023-01-01T09:15:15.878Z,3.37
2023-01-01T09:18:18.586Z,6.13
2023-01-01T09:21:21.407Z,5.60
2023-01-01T09:24:25.395Z,4.40
2023-01-01T09:27:28.003Z,7.27
2023-01-01T09:30:30.610Z,5.00
2023-01-01T09:33:33.712Z,6.37
2023-01-01T09:36:36.414Z,4.83
2023-01-01T09:39:40.318Z,4.60
2023-01-01T09:42:47.884Z,5.97
2023-01-01T09:45:59.813Z,8.90
2023-01-01T09:49:06.394Z,7.73
2023-01-01T09:52:14.150Z,4.90
2023-01-01T09:55:26.658Z,4.37
2023-01-01T09:58:33.201Z,6.30
2023-01-01T10:01:46.430Z,6.97
2023-01-01T10:05:00.487Z,7.70
2023-01-01T10:08:11.304Z,6.17
2023-01-01T10:11:24.119Z,4.37
2023-01-01T10:14:33.154Z,5.83
2023-01-01T10:17:41.819Z,5.97
2023-01-01T10:20:49.483Z,9.23
2023-01-01T10:23:57.314Z,6.60
2023-01-01T10:27:04.639Z,4.60
2023-01-01T10:30:16.450Z,7.20
2023-01-01T10:33:19.148Z,7.97
2023-01-01T10:36:21.732Z,7.47
2023-01-01T10:39:25.572Z,8.60
2023-01-01T10:42:29.583Z,10.13
2023-01-01T10:45:35.236Z,9.10
2023-01-01T10:48:37.893Z,6.33
2023-01-01T10:51:45.847Z,9.37
2023-01-01T10:54:48.595Z,10.07
2023-01-01T10:57:52.587Z,9.13
2023-01-01T11:01:03.003Z,7.30
2023-01-01T11:04:21.074Z,5.37
2023-01-01T11:07:31.243Z,5.83
2023-01-01T11:10:33.862Z,4.77
2023-01-01T11:13:37.859Z,3.63
2023-01-01T11:16:41.156Z,5.13
2023-01-01T11:19:50.629Z,2.67
2023-01-01T11:22:54.440Z,3.70
2023-01-01T11:26:02.971Z,10.20
2023-01-01T11:29:26.621Z,3.40
2023-01-01T11:32:35.461Z,4.77
2023-01-01T11:35:50.943Z,3.73
2023-01-01T11:39:08.031Z,4.37
2023-01-01T11:42:18.700Z,3.47
2023-01-01T11:45:25.977Z,3.83
2023-01-01T11:48:31.763Z,6.47
2023-01-01T11:51:35.175Z,2.90
2023-01-01T11:54:38.143Z,4.87
2023-01-01T11:57:45.718Z,8.87
2023-01-01T12:00:55.433Z,2.37
2023-01-01T12:04:03.359Z,3.50
2023-01-01T12:07:08.516Z,4.63
2023-01-01T12:10:19.320Z,2.80
2023-01-01T12:13:26.392Z,6.40
2023-01-01T12:16:44.720Z,4.20
2023-01-01T12:20:00.087Z,3.53
2023-01-01T12:23:03.334Z,5.90
2023-01-01T12:26:17.737Z,4.23
2023-01-01T12:29:40.877Z,5.27
2023-01-01T12:33:08.178Z,6.67
2023-01-01T12:36:20.833Z,7.03
2023-01-01T12:40:01.585Z,6.43
2023-01-01T12:43:06.331Z,6.03
2023-01-01T12:46:37.786Z,3.73
2023-01-01T12:49:57.775Z,6.47
2023-01-01T12:53:10.244Z,7.63
2023-01-01T12:56:23.524Z,2.83
2023-01-01T12:59:29.591Z,7.07
2023-01-01T13:02:37.206Z,5.50
2023-01-01T13:05:44.045Z,3.90
2023-01-01T13:08:52.288Z,6.53
2023-01-01T13:11:58.488Z,4.17
2023-01-01T13:15:01.068Z,3.13
2023-01-01T13:18:06.392Z,5.07
2023-01-01T13:21:25.470Z,12.73
2023-01-01T13:24:28.708Z,5.80
2023-01-01T13:28:05.436Z,8.43
2023-01-01T13:31:08.097Z,9.90
2023-01-01T13:35:00.632Z,6.87
2023-01-01T13:38:04.596Z,7.40
2023-01-01T13:41:30.647Z,6.70
2023-01-01T13:44:33.255Z,6.80
2023-01-01T13:47:45.469Z,7.00
2023-01-01T13:51:00.355Z,15.77
2023-01-01T13:54:26.896Z,6.80
2023-01-01T13:57:49.099Z,6.73
2023-01-01T14:01:36.947Z,5.43
2023-01-01T14:04:44.507Z,8.43
2023-01-01T14:07:51.734Z,7.80
2023-01-01T14:10:56.599Z,8.20
2023-01-01T14:13:59.216Z,4.27
2023-01-01T14:17:06.811Z,6.53
2023-01-01T14:20:15.503Z,11.40
2023-01-01T14:23:24.364Z,6.53
2023-01-01T14:26:30.272Z,9.50
2023-01-01T14:29:33.774Z,10.03
2023-01-01T14:32:36.398Z,11.50
2023-01-01T14:35:39.017Z,13.53
2023-01-01T14:38:45.739Z,18.03
2023-01-01T14:41:49.712Z,12.17
2023-01-01T14:44:53.499Z,7.67
2023-01-01T14:47:57.919Z,6.40
2023-01-01T14:51:01.037Z,7.60
2023-01-01T14:54:05.739Z,7.20
2023-01-01T14:57:14.801Z,12.30
2023-01-01T15:00:23.813Z,7.83
2023-01-01T15:03:26.438Z,6.57
2023-01-01T15:06:29.775Z,10.00
2023-01-01T15:09:34.066Z,7.83
2023-01-01T15:12:39.316Z,7.67
2023-01-01T15:15:43.704Z,8.77
2023-01-01T15:18:47.488Z,9.50
2023-01-01T15:21:50.134Z,7.20
2023-01-01T15:24:52.973Z,13.07
2023-01-01T15:27:57.986Z,6.77
2023-01-01T15:31:00.795Z,5.57
2023-01-01T15:34:04.647Z,7.73
2023-01-01T15:37:13.528Z,8.30
2023-01-01T15:40:34.554Z,9.27
2023-01-01T15:43:38.515Z,10.07
2023-01-01T15:46:47.250Z,7.83
2023-01-01T15:49:49.818Z,8.07
2023-01-01T15:52:56.150Z,8.73
2023-01-01T15:56:01.113Z,12.70
2023-01-01T15:59:09.786Z,8.37
2023-01-01T16:02:17.487Z,10.13
2023-01-01T16:05:23.551Z,10.30
2023-01-01T16:08:26.638Z,10.37
2023-01-01T16:11:29.222Z,6.43
2023-01-01T16:14:33.129Z,9.43
2023-01-01T16:17:35.728Z,8.53
2023-01-01T16:20:38.396Z,15.07
2023-01-01T16:23:40.989Z,8.77
2023-01-01T16:26:44.369Z,10.00
2023-01-01T16:29:54.452Z,11.23
2023-01-01T16:32:57.662Z,7.80
2023-01-01T16:36:00.259Z,8.47
2023-01-01T16:39:02.847Z,12.70
2023-01-01T16:42:05.739Z,12.27
2023-01-01T16:45:17.017Z,10.70
2023-01-01T16:48:19.639Z,11.17
2023-01-01T16:51:25.766Z,10.07
2023-01-01T16:54:28.393Z,8.80
2023-01-01T16:57:32.325Z,14.70
2023-01-01T17:00:37.879Z,8.70
2023-01-01T17:03:40.594Z,10.17
2023-01-01T17:06:43.237Z,8.77
2023-01-01T17:09:45.823Z,14.57
2023-01-01T17:12:48.467Z,19.33
2023-01-01T17:15:57.475Z,14.40
2023-01-01T17:19:16.990Z,11.80
2023-01-01T17:22:21.173Z,10.23
2023-01-01T17:25:23.811Z,11.33
2023-01-01T17:28:26.387Z,7.73
2023-01-01T17:31:31.664Z,9.97
2023-01-01T17:34:34.328Z,8.90
2023-01-01T17:37:36.901Z,11.33
2023-01-01T17:40:39.469Z,6.53
2023-01-01T17:43:44.105Z,16.00
2023-01-01T17:46:48.086Z,9.50
2023-01-01T17:49:50.726Z,13.23
2023-01-01T17:52:53.517Z,7.70
2023-01-01T17:55:56.171Z,9.60
2023-01-01T17:58:58.811Z,12.60
2023-01-01T18:02:03.009Z,11.63
2023-01-01T18:05:06.329Z,11.57
2023-01-01T18:08:09.308Z,15.10
2023-01-01T18:11:11.960Z,14.87
2023-01-01T18:14:18.468Z,13.67
2023-01-01T18:17:26.516Z,8.67
2023-01-01T18:20:29.097Z,12.97
2023-01-01T18:23:34.912Z,8.60
2023-01-01T18:26:37.665Z,11.97
2023-01-01T18:29:40.276Z,14.23
2023-01-01T18:32:44.228Z,7.27
2023-01-01T18:35:46.846Z,13.47
2023-01-01T18:38:57.848Z,5.80
2023-01-01T18:42:29.448Z,10.33
2023-01-01T18:45:35.877Z,9.47
2023-01-01T18:48:40.373Z,8.63
2023-01-01T18:51:42.998Z,12.80
2023-01-01T18:54:45.583Z,12.33
2023-01-01T18:57:51.060Z,9.93
2023-01-01T19:00:55.081Z,10.83
2023-01-01T19:04:04.367Z,9.43
2023-01-01T19:07:11.352Z,10.67
2023-01-01T19:10:14.977Z,14.77
2023-01-01T19:13:20.566Z,10.73
2023-01-01T19:16:28.890Z,9.60
2023-01-01T19:19:36.898Z,8.63
2023-01-01T19:22:39.462Z,9.47
2023-01-01T19:25:42.107Z,13.37
2023-01-01T19:28:50.211Z,12.10
2023-01-01T19:31:55.420Z,15.00
2023-01-01T19:34:59.403Z,12.30
2023-01-01T19:38:01.994Z,10.63
2023-01-01T19:41:04.614Z,13.70
2023-01-01T19:44:10.108Z,9.07
2023-01-01T19:47:13.058Z,12.40
2023-01-01T19:50:17.517Z,11.70
2023-01-01T19:53:20.140Z,6.03
2023-01-01T19:56:23.094Z,13.37
2023-01-01T19:59:32.675Z,10.77
2023-01-01T20:02:46.143Z,11.40
2023-01-01T20:05:51.171Z,9.50
2023-01-01T20:08:54.919Z,12.60
2023-01-01T20:11:57.544Z,10.70
2023-01-01T20:15:00.126Z,13.20
2023-01-01T20:18:02.741Z,8.17
2023-01-01T20:21:26.635Z,9.43
2023-01-01T20:24:29.697Z,13.57
2023-01-01T20:27:33.040Z,8.93
2023-01-01T20:30:37.087Z,8.47
2023-01-01T20:33:39.729Z,10.80
2023-01-01T20:37:01.638Z,8.93
2023-01-01T20:40:06.819Z,9.40
2023-01-01T20:43:09.443Z,10.00
2023-01-01T20:46:12.337Z,12.70
2023-01-01T20:49:16.907Z,10.77
2023-01-01T20:52:20.882Z,15.33
2023-01-01T20:55:23.456Z,10.50
2023-01-01T20:58:26.039Z,8.10
2023-01-01T21:01:28.744Z,10.33
2023-01-01T21:04:31.485Z,14.17
2023-01-01T21:07:35.503Z,9.27
2023-01-01T21:10:38.198Z,12.10
2023-01-01T21:13:40.770Z,12.87
2023-01-01T21:16:45.934Z,10.20
2023-01-01T21:19:49.010Z,9.43
2023-01-01T21:22:53.567Z,8.77
2023-01-01T21:25:56.987Z,9.87
2023-01-01T21:29:00.397Z,11.63
2023-01-01T21:32:17.695Z,11.40
2023-01-01T21:35:23.606Z,10.97
2023-01-01T21:38:29.202Z,10.23
2023-01-01T21:41:31.787Z,12.00
2023-01-01T21:44:34.430Z,11.27
2023-01-01T21:47:37.107Z,8.83
2023-01-01T21:50:42.347Z,12.13
2023-01-01T21:53:46.307Z,12.70
2023-01-01T21:56:58.335Z,23.70
2023-01-01T22:00:01.297Z,18.53
2023-01-01T22:03:03.973Z,10.30
2023-01-01T22:06:13.557Z,10.00
2023-01-01T22:09:22.072Z,10.23
2023-01-01T22:12:27.688Z,13.63
2023-01-01T22:15:39.003Z,13.27
2023-01-01T22:18:42.656Z,9.97
2023-01-01T22:21:46.045Z,12.10
2023-01-01T22:24:54.574Z,8.93
2023-01-01T22:27:57.308Z,10.47
2023-01-01T22:31:01.643Z,12.73
2023-01-01T22:34:06.588Z,6.30
2023-01-01T22:37:16.552Z,5.90
2023-01-01T22:40:28.850Z,11.57
2023-01-01T22:43:34.387Z,8.53
2023-01-01T22:46:39.996Z,5.93
2023-01-01T22:49:46.718Z,11.93
2023-01-01T22:52:49.521Z,6.93
2023-01-01T22:55:53.485Z,10.13
2023-01-01T22:58:57.490Z,8.97
2023-01-01T23:02:00.854Z,8.43
2023-01-01T23:05:03.501Z,9.10
2023-01-01T23:08:06.844Z,14.87
2023-01-01T23:11:10.961Z,4.90
2023-01-01T23:14:35.533Z,11.13
2023-01-01T23:17:41.121Z,6.50
2023-01-01T23:20:43.734Z,11.73
2023-01-01T23:23:49.363Z,9.87
2023-01-01T23:26:54.123Z,7.97
2023-01-01T23:29:56.850Z,5.30
2023-01-01T23:32:59.483Z,6.20
2023-01-01T23:36:03.473Z,10.33
2023-01-01T23:39:06.081Z,13.13
2023-01-01T23:42:10.041Z,5.60
2023-01-01T23:45:12.695Z,9.07
2023-01-01T23:48:16.579Z,5.67
2023-01-01T23:51:20.091Z,6.67
2023-01-01T23:54:22.889Z,10.63
2023-01-01T23:57:26.893Z,11.40
